sensor_id;sensor_type;location;lat;lon;timestamp;temperature;humidity
33863;DHT22;20158;51.436;-2.742;2023-02-26T00:01:02;6.90;50.40
33863;DHT22;20158;51.436;-2.742;2023-02-26T00:03:28;6.90;50.40
33863;DHT22;20158;51.436;-2.742;2023-02-26T00:05:59;6.90;50.50
33863;DHT22;20158;51.436;-2.742;2023-02-26T00:08:25;6.80;50.40
33863;DHT22;20158;51.436;-2.742;2023-02-26T00:10:51;6.80;50.40
33863;DHT22;20158;51.436;-2.742;2023-02-26T00:13:19;6.80;50.50
33863;DHT22;20158;51.436;-2.742;2023-02-26T00:15:46;6.80;50.60
33863;DHT22;20158;51.436;-2.742;2023-02-26T00:18:14;6.80;50.60
33863;DHT22;20158;51.436;-2.742;2023-02-26T00:20:41;6.70;50.50
33863;DHT22;20158;51.436;-2.742;2023-02-26T00:23:12;6.70;50.60
33863;DHT22;20158;51.436;-2.742;2023-02-26T00:25:40;6.70;50.70
33863;DHT22;20158;51.436;-2.742;2023-02-26T00:28:07;6.70;50.70
33863;DHT22;20158;51.436;-2.742;2023-02-26T00:30:34;6.70;50.80
33863;DHT22;20158;51.436;-2.742;2023-02-26T00:33:00;6.70;50.80
33863;DHT22;20158;51.436;-2.742;2023-02-26T00:35:27;6.70;50.80
33863;DHT22;20158;51.436;-2.742;2023-02-26T00:38:05;6.70;50.90
33863;DHT22;20158;51.436;-2.742;2023-02-26T00:40:46;6.60;50.80
33863;DHT22;20158;51.436;-2.742;2023-02-26T00:43:20;6.60;50.80
33863;DHT22;20158;51.436;-2.742;2023-02-26T00:53:43;6.60;51.00
33863;DHT22;20158;51.436;-2.742;2023-02-26T00:56:10;6.60;51.00
33863;DHT22;20158;51.436;-2.742;2023-02-26T00:58:38;6.50;50.90
33863;DHT22;20158;51.436;-2.742;2023-02-26T01:01:04;6.50;51.00
33863;DHT22;20158;51.436;-2.742;2023-02-26T01:03:31;6.50;51.00
33863;DHT22;20158;51.436;-2.742;2023-02-26T01:05:58;6.50;51.10
33863;DHT22;20158;51.436;-2.742;2023-02-26T01:08:33;6.50;51.10
33863;DHT22;20158;51.436;-2.742;2023-02-26T01:11:03;6.50;51.20
33863;DHT22;20158;51.436;-2.742;2023-02-26T01:13:29;6.40;51.10
33863;DHT22;20158;51.436;-2.742;2023-02-26T01:16:04;6.40;51.10
33863;DHT22;20158;51.436;-2.742;2023-02-26T01:18:55;6.40;51.20
33863;DHT22;20158;51.436;-2.742;2023-02-26T01:21:30;6.40;51.30
33863;DHT22;20158;51.436;-2.742;2023-02-26T01:23:58;6.40;51.30
33863;DHT22;20158;51.436;-2.742;2023-02-26T01:26:28;6.40;51.30
33863;DHT22;20158;51.436;-2.742;2023-02-26T01:28:54;6.40;51.40
33863;DHT22;20158;51.436;-2.742;2023-02-26T01:34:03;6.40;51.40
33863;DHT22;20158;51.436;-2.742;2023-02-26T01:36:32;6.30;51.30
33863;DHT22;20158;51.436;-2.742;2023-02-26T01:39:17;6.40;51.50
33863;DHT22;20158;51.436;-2.742;2023-02-26T01:41:54;6.30;51.20
33863;DHT22;20158;51.436;-2.742;2023-02-26T01:49:42;6.30;51.40
33863;DHT22;20158;51.436;-2.742;2023-02-26T01:55:13;6.20;51.40
33863;DHT22;20158;51.436;-2.742;2023-02-26T01:57:39;6.20;51.30
33863;DHT22;20158;51.436;-2.742;2023-02-26T02:00:06;6.20;51.40
33863;DHT22;20158;51.436;-2.742;2023-02-26T02:02:38;6.20;51.50
33863;DHT22;20158;51.436;-2.742;2023-02-26T02:05:29;6.20;51.50
33863;DHT22;20158;51.436;-2.742;2023-02-26T02:07:57;6.20;51.70
33863;DHT22;20158;51.436;-2.742;2023-02-26T02:10:25;6.20;51.60
33863;DHT22;20158;51.436;-2.742;2023-02-26T02:15:47;6.10;51.60
33863;DHT22;20158;51.436;-2.742;2023-02-26T02:26:55;6.00;51.60
33863;DHT22;20158;51.436;-2.742;2023-02-26T02:32:33;6.00;51.70
33863;DHT22;20158;51.436;-2.742;2023-02-26T02:35:21;6.00;51.60
33863;DHT22;20158;51.436;-2.742;2023-02-26T02:38:08;6.00;51.60
33863;DHT22;20158;51.436;-2.742;2023-02-26T02:40:43;6.00;51.70
33863;DHT22;20158;51.436;-2.742;2023-02-26T02:43:16;6.00;51.70
33863;DHT22;20158;51.436;-2.742;2023-02-26T02:45:46;6.00;51.70
33863;DHT22;20158;51.436;-2.742;2023-02-26T02:50:47;6.00;51.80
33863;DHT22;20158;51.436;-2.742;2023-02-26T02:53:22;6.00;51.90
33863;DHT22;20158;51.436;-2.742;2023-02-26T02:56:04;5.90;51.70
33863;DHT22;20158;51.436;-2.742;2023-02-26T02:58:38;5.90;51.80
33863;DHT22;20158;51.436;-2.742;2023-02-26T03:01:11;5.90;51.80
33863;DHT22;20158;51.436;-2.742;2023-02-26T03:06:15;5.90;51.90
33863;DHT22;20158;51.436;-2.742;2023-02-26T03:08:44;5.90;51.90
33863;DHT22;20158;51.436;-2.742;2023-02-26T03:11:11;5.90;52.00
33863;DHT22;20158;51.436;-2.742;2023-02-26T03:13:38;5.80;51.80
33863;DHT22;20158;51.436;-2.742;2023-02-26T03:21:33;5.80;52.00
33863;DHT22;20158;51.436;-2.742;2023-02-26T03:24:29;5.80;52.00
33863;DHT22;20158;51.436;-2.742;2023-02-26T03:27:04;5.80;52.10
33863;DHT22;20158;51.436;-2.742;2023-02-26T03:32:30;5.80;52.10
33863;DHT22;20158;51.436;-2.742;2023-02-26T03:35:26;5.80;52.10
33863;DHT22;20158;51.436;-2.742;2023-02-26T03:37:58;5.70;52.10
33863;DHT22;20158;51.436;-2.742;2023-02-26T03:41:21;5.70;52.00
33863;DHT22;20158;51.436;-2.742;2023-02-26T03:43:27;5.70;52.10
33863;DHT22;20158;51.436;-2.742;2023-02-26T03:45:58;5.70;52.10
33863;DHT22;20158;51.436;-2.742;2023-02-26T03:48:28;5.70;52.10
33863;DHT22;20158;51.436;-2.742;2023-02-26T03:51:00;5.70;52.20
33863;DHT22;20158;51.436;-2.742;2023-02-26T03:54:13;5.70;52.20
33863;DHT22;20158;51.436;-2.742;2023-02-26T03:56:45;5.70;52.20
33863;DHT22;20158;51.436;-2.742;2023-02-26T03:59:30;5.70;52.20
33863;DHT22;20158;51.436;-2.742;2023-02-26T04:02:26;5.60;52.10
33863;DHT22;20158;51.436;-2.742;2023-02-26T04:05:11;5.60;52.10
33863;DHT22;20158;51.436;-2.742;2023-02-26T04:07:39;5.60;52.20
33863;DHT22;20158;51.436;-2.742;2023-02-26T04:10:07;5.60;52.20
33863;DHT22;20158;51.436;-2.742;2023-02-26T04:12:35;5.60;52.30
33863;DHT22;20158;51.436;-2.742;2023-02-26T04:15:03;5.60;52.30
33863;DHT22;20158;51.436;-2.742;2023-02-26T04:17:30;5.50;52.20
33863;DHT22;20158;51.436;-2.742;2023-02-26T04:19:58;5.50;52.20
33863;DHT22;20158;51.436;-2.742;2023-02-26T04:22:24;5.50;52.30
33863;DHT22;20158;51.436;-2.742;2023-02-26T04:24:50;5.50;52.30
33863;DHT22;20158;51.436;-2.742;2023-02-26T04:27:17;5.50;52.30
33863;DHT22;20158;51.436;-2.742;2023-02-26T04:29:43;5.50;52.40
33863;DHT22;20158;51.436;-2.742;2023-02-26T04:32:09;5.50;52.40
33863;DHT22;20158;51.436;-2.742;2023-02-26T04:34:36;5.40;52.30
33863;DHT22;20158;51.436;-2.742;2023-02-26T04:37:01;5.40;52.30
33863;DHT22;20158;51.436;-2.742;2023-02-26T04:39:28;5.40;52.90
33863;DHT22;20158;51.436;-2.742;2023-02-26T04:41:54;5.40;52.40
33863;DHT22;20158;51.436;-2.742;2023-02-26T04:44:19;5.40;52.40
33863;DHT22;20158;51.436;-2.742;2023-02-26T04:46:45;5.40;52.40
33863;DHT22;20158;51.436;-2.742;2023-02-26T04:49:12;5.40;52.40
33863;DHT22;20158;51.436;-2.742;2023-02-26T04:51:42;5.40;52.50
33863;DHT22;20158;51.436;-2.742;2023-02-26T04:54:07;5.40;52.50
33863;DHT22;20158;51.436;-2.742;2023-02-26T04:56:34;5.40;52.50
33863;DHT22;20158;51.436;-2.742;2023-02-26T04:59:02;5.40;52.60
33863;DHT22;20158;51.436;-2.742;2023-02-26T05:01:30;5.40;52.60
33863;DHT22;20158;51.436;-2.742;2023-02-26T05:03:57;5.40;52.60
33863;DHT22;20158;51.436;-2.742;2023-02-26T05:06:24;5.30;52.40
33863;DHT22;20158;51.436;-2.742;2023-02-26T05:08:49;5.40;52.70
33863;DHT22;20158;51.436;-2.742;2023-02-26T05:11:17;5.30;52.50
33863;DHT22;20158;51.436;-2.742;2023-02-26T05:13:43;5.30;52.50
33863;DHT22;20158;51.436;-2.742;2023-02-26T05:16:09;5.30;52.60
33863;DHT22;20158;51.436;-2.742;2023-02-26T05:18:35;5.30;52.60
33863;DHT22;20158;51.436;-2.742;2023-02-26T05:21:01;5.20;52.70
33863;DHT22;20158;51.436;-2.742;2023-02-26T05:23:27;5.30;52.70
33863;DHT22;20158;51.436;-2.742;2023-02-26T05:25:57;5.20;52.60
33863;DHT22;20158;51.436;-2.742;2023-02-26T05:28:27;5.20;52.70
33863;DHT22;20158;51.436;-2.742;2023-02-26T05:30:55;5.20;52.70
33863;DHT22;20158;51.436;-2.742;2023-02-26T05:33:21;5.30;52.80
33863;DHT22;20158;51.436;-2.742;2023-02-26T05:35:47;5.30;52.90
33863;DHT22;20158;51.436;-2.742;2023-02-26T05:38:14;5.30;52.80
33863;DHT22;20158;51.436;-2.742;2023-02-26T05:40:40;5.30;52.80
33863;DHT22;20158;51.436;-2.742;2023-02-26T05:43:07;5.30;52.80
33863;DHT22;20158;51.436;-2.742;2023-02-26T05:45:33;5.30;52.80
33863;DHT22;20158;51.436;-2.742;2023-02-26T05:47:59;5.30;52.80
33863;DHT22;20158;51.436;-2.742;2023-02-26T05:50:25;5.40;52.90
33863;DHT22;20158;51.436;-2.742;2023-02-26T05:52:52;5.30;52.80
33863;DHT22;20158;51.436;-2.742;2023-02-26T05:55:18;5.30;52.80
33863;DHT22;20158;51.436;-2.742;2023-02-26T05:57:44;5.30;52.80
33863;DHT22;20158;51.436;-2.742;2023-02-26T06:00:10;5.30;52.80
33863;DHT22;20158;51.436;-2.742;2023-02-26T06:02:40;5.40;53.00
33863;DHT22;20158;51.436;-2.742;2023-02-26T06:05:07;5.30;52.90
33863;DHT22;20158;51.436;-2.742;2023-02-26T06:07:33;5.30;52.80
33863;DHT22;20158;51.436;-2.742;2023-02-26T06:09:59;5.30;53.10
33863;DHT22;20158;51.436;-2.742;2023-02-26T06:12:25;5.30;52.80
33863;DHT22;20158;51.436;-2.742;2023-02-26T06:14:51;5.30;52.90
33863;DHT22;20158;51.436;-2.742;2023-02-26T06:17:17;5.30;52.90
33863;DHT22;20158;51.436;-2.742;2023-02-26T06:19:43;5.30;53.00
33863;DHT22;20158;51.436;-2.742;2023-02-26T06:22:10;5.20;52.80
33863;DHT22;20158;51.436;-2.742;2023-02-26T06:24:35;5.20;52.90
33863;DHT22;20158;51.436;-2.742;2023-02-26T06:27:01;5.20;52.90
33863;DHT22;20158;51.436;-2.742;2023-02-26T06:29:27;5.20;52.90
33863;DHT22;20158;51.436;-2.742;2023-02-26T06:31:53;5.20;53.00
33863;DHT22;20158;51.436;-2.742;2023-02-26T06:34:19;5.20;53.00
33863;DHT22;20158;51.436;-2.742;2023-02-26T06:36:46;5.10;52.90
33863;DHT22;20158;51.436;-2.742;2023-02-26T06:39:12;5.10;52.90
33863;DHT22;20158;51.436;-2.742;2023-02-26T06:41:38;5.10;52.90
33863;DHT22;20158;51.436;-2.742;2023-02-26T06:44:04;5.10;53.00
33863;DHT22;20158;51.436;-2.742;2023-02-26T06:46:30;5.10;53.00
33863;DHT22;20158;51.436;-2.742;2023-02-26T06:48:56;5.10;53.00
33863;DHT22;20158;51.436;-2.742;2023-02-26T06:51:22;5.00;52.80
33863;DHT22;20158;51.436;-2.742;2023-02-26T06:53:48;5.10;53.00
33863;DHT22;20158;51.436;-2.742;2023-02-26T06:56:14;5.10;53.10
33863;DHT22;20158;51.436;-2.742;2023-02-26T06:58:40;5.10;53.00
33863;DHT22;20158;51.436;-2.742;2023-02-26T07:01:06;5.10;53.10
33863;DHT22;20158;51.436;-2.742;2023-02-26T07:03:32;5.10;53.10
33863;DHT22;20158;51.436;-2.742;2023-02-26T07:05:58;5.00;52.90
33863;DHT22;20158;51.436;-2.742;2023-02-26T07:08:23;5.00;52.90
33863;DHT22;20158;51.436;-2.742;2023-02-26T07:10:49;5.00;53.00
33863;DHT22;20158;51.436;-2.742;2023-02-26T07:13:16;5.00;53.00
33863;DHT22;20158;51.436;-2.742;2023-02-26T07:15:42;5.00;53.00
33863;DHT22;20158;51.436;-2.742;2023-02-26T07:18:08;5.00;53.00
33863;DHT22;20158;51.436;-2.742;2023-02-26T07:20:34;5.00;53.60
33863;DHT22;20158;51.436;-2.742;2023-02-26T07:23:00;5.00;53.00
33863;DHT22;20158;51.436;-2.742;2023-02-26T07:25:27;5.00;53.10
33863;DHT22;20158;51.436;-2.742;2023-02-26T07:27:53;5.10;53.70
33863;DHT22;20158;51.436;-2.742;2023-02-26T07:30:21;5.20;54.10
33863;DHT22;20158;51.436;-2.742;2023-02-26T07:32:46;5.30;54.50
33863;DHT22;20158;51.436;-2.742;2023-02-26T07:35:12;5.40;54.80
33863;DHT22;20158;51.436;-2.742;2023-02-26T07:37:38;5.50;55.10
33863;DHT22;20158;51.436;-2.742;2023-02-26T07:40:04;5.60;55.30
33863;DHT22;20158;51.436;-2.742;2023-02-26T07:42:30;5.70;55.50
33863;DHT22;20158;51.436;-2.742;2023-02-26T07:44:57;5.80;55.70
33863;DHT22;20158;51.436;-2.742;2023-02-26T07:47:23;6.10;56.80
33863;DHT22;20158;51.436;-2.742;2023-02-26T07:49:49;6.30;57.40
33863;DHT22;20158;51.436;-2.742;2023-02-26T07:52:15;6.60;57.50
33863;DHT22;20158;51.436;-2.742;2023-02-26T07:54:42;6.80;57.40
33863;DHT22;20158;51.436;-2.742;2023-02-26T07:57:08;6.90;57.20
33863;DHT22;20158;51.436;-2.742;2023-02-26T07:59:34;6.90;57.00
33863;DHT22;20158;51.436;-2.742;2023-02-26T08:02:00;6.90;56.70
33863;DHT22;20158;51.436;-2.742;2023-02-26T08:04:26;6.90;56.70
33863;DHT22;20158;51.436;-2.742;2023-02-26T08:06:52;6.90;56.70
33863;DHT22;20158;51.436;-2.742;2023-02-26T08:09:22;6.80;56.50
33863;DHT22;20158;51.436;-2.742;2023-02-26T08:11:48;6.80;56.40
33863;DHT22;20158;51.436;-2.742;2023-02-26T08:14:14;6.80;56.40
33863;DHT22;20158;51.436;-2.742;2023-02-26T08:16:39;6.70;56.20
33863;DHT22;20158;51.436;-2.742;2023-02-26T08:19:05;6.70;56.20
33863;DHT22;20158;51.436;-2.742;2023-02-26T08:21:31;6.60;56.10
33863;DHT22;20158;51.436;-2.742;2023-02-26T08:23:58;6.60;56.00
33863;DHT22;20158;51.436;-2.742;2023-02-26T08:26:24;6.60;55.90
33863;DHT22;20158;51.436;-2.742;2023-02-26T08:28:49;6.60;55.90
33863;DHT22;20158;51.436;-2.742;2023-02-26T08:31:16;6.60;55.80
33863;DHT22;20158;51.436;-2.742;2023-02-26T08:33:42;6.60;55.70
33863;DHT22;20158;51.436;-2.742;2023-02-26T08:36:08;6.60;55.70
33863;DHT22;20158;51.436;-2.742;2023-02-26T08:38:34;6.60;55.60
33863;DHT22;20158;51.436;-2.742;2023-02-26T08:41:00;6.60;55.60
33863;DHT22;20158;51.436;-2.742;2023-02-26T08:43:26;6.60;55.40
33863;DHT22;20158;51.436;-2.742;2023-02-26T08:45:53;6.60;55.40
33863;DHT22;20158;51.436;-2.742;2023-02-26T08:48:20;6.60;55.40
33863;DHT22;20158;51.436;-2.742;2023-02-26T08:50:46;6.70;55.40
33863;DHT22;20158;51.436;-2.742;2023-02-26T08:53:13;6.70;55.30
33863;DHT22;20158;51.436;-2.742;2023-02-26T08:55:39;6.80;55.30
33863;DHT22;20158;51.436;-2.742;2023-02-26T08:58:05;6.80;55.20
33863;DHT22;20158;51.436;-2.742;2023-02-26T09:00:33;6.90;55.20
33863;DHT22;20158;51.436;-2.742;2023-02-26T09:02:58;6.90;55.10
33863;DHT22;20158;51.436;-2.742;2023-02-26T09:05:24;7.00;55.10
33863;DHT22;20158;51.436;-2.742;2023-02-26T09:07:50;7.10;55.10
33863;DHT22;20158;51.436;-2.742;2023-02-26T09:10:16;7.20;55.20
33863;DHT22;20158;51.436;-2.742;2023-02-26T09:12:43;7.20;54.90
33863;DHT22;20158;51.436;-2.742;2023-02-26T09:15:10;7.30;54.90
33863;DHT22;20158;51.436;-2.742;2023-02-26T09:17:38;7.40;54.90
33863;DHT22;20158;51.436;-2.742;2023-02-26T09:20:04;7.50;54.90
33863;DHT22;20158;51.436;-2.742;2023-02-26T09:22:30;7.50;54.70
33863;DHT22;20158;51.436;-2.742;2023-02-26T09:24:56;7.60;55.30
33863;DHT22;20158;51.436;-2.742;2023-02-26T09:27:22;7.80;55.00
33863;DHT22;20158;51.436;-2.742;2023-02-26T09:29:48;7.90;55.00
33863;DHT22;20158;51.436;-2.742;2023-02-26T09:32:14;7.90;54.60
33863;DHT22;20158;51.436;-2.742;2023-02-26T09:34:40;8.10;55.40
33863;DHT22;20158;51.436;-2.742;2023-02-26T09:37:07;8.20;54.80
33863;DHT22;20158;51.436;-2.742;2023-02-26T09:39:35;8.20;54.60
33863;DHT22;20158;51.436;-2.742;2023-02-26T09:44:53;8.40;54.60
33863;DHT22;20158;51.436;-2.742;2023-02-26T09:47:32;8.50;54.70
33863;DHT22;20158;51.436;-2.742;2023-02-26T09:53:32;8.70;54.60
33863;DHT22;20158;51.436;-2.742;2023-02-26T09:56:22;8.70;54.30
33863;DHT22;20158;51.436;-2.742;2023-02-26T09:58:49;8.70;54.30
33863;DHT22;20158;51.436;-2.742;2023-02-26T10:01:28;8.60;54.20
33863;DHT22;20158;51.436;-2.742;2023-02-26T10:12:25;8.30;53.70
33863;DHT22;20158;51.436;-2.742;2023-02-26T10:15:12;8.20;53.80
33863;DHT22;20158;51.436;-2.742;2023-02-26T10:17:41;8.10;53.70
33863;DHT22;20158;51.436;-2.742;2023-02-26T10:20:22;8.00;53.60
33863;DHT22;20158;51.436;-2.742;2023-02-26T10:23:00;8.00;53.60
33863;DHT22;20158;51.436;-2.742;2023-02-26T10:25:40;8.00;53.70
33863;DHT22;20158;51.436;-2.742;2023-02-26T10:31:34;8.10;53.60
33863;DHT22;20158;51.436;-2.742;2023-02-26T10:34:28;8.10;53.40
33863;DHT22;20158;51.436;-2.742;2023-02-26T10:39:57;8.20;53.30
33863;DHT22;20158;51.436;-2.742;2023-02-26T10:42:54;8.10;52.90
33863;DHT22;20158;51.436;-2.742;2023-02-26T10:51:19;8.30;54.20
33863;DHT22;20158;51.436;-2.742;2023-02-26T10:53:57;8.50;54.60
33863;DHT22;20158;51.436;-2.742;2023-02-26T10:56:28;8.70;54.90
33863;DHT22;20158;51.436;-2.742;2023-02-26T10:58:55;8.90;55.10
33863;DHT22;20158;51.436;-2.742;2023-02-26T11:01:24;9.10;55.30
33863;DHT22;20158;51.436;-2.742;2023-02-26T11:04:05;9.30;55.60
33863;DHT22;20158;51.436;-2.742;2023-02-26T11:06:39;9.40;55.60
33863;DHT22;20158;51.436;-2.742;2023-02-26T11:12:12;10.00;56.40
33863;DHT22;20158;51.436;-2.742;2023-02-26T11:14:39;10.20;56.30
33863;DHT22;20158;51.436;-2.742;2023-02-26T11:19:42;10.70;56.60
33863;DHT22;20158;51.436;-2.742;2023-02-26T11:22:14;11.10;56.80
33863;DHT22;20158;51.436;-2.742;2023-02-26T11:24:43;11.30;56.40
33863;DHT22;20158;51.436;-2.742;2023-02-26T11:27:16;11.50;56.20
33863;DHT22;20158;51.436;-2.742;2023-02-26T11:29:47;11.60;55.80
33863;DHT22;20158;51.436;-2.742;2023-02-26T11:32:30;11.70;55.60
33863;DHT22;20158;51.436;-2.742;2023-02-26T11:34:56;11.70;55.20
33863;DHT22;20158;51.436;-2.742;2023-02-26T11:37:28;11.70;55.20
33863;DHT22;20158;51.436;-2.742;2023-02-26T11:39:57;11.70;55.10
33863;DHT22;20158;51.436;-2.742;2023-02-26T11:42:25;11.70;55.00
33863;DHT22;20158;51.436;-2.742;2023-02-26T11:44:52;11.70;54.90
33863;DHT22;20158;51.436;-2.742;2023-02-26T11:47:22;11.70;54.80
33863;DHT22;20158;51.436;-2.742;2023-02-26T11:49:55;11.60;54.30
33863;DHT22;20158;51.436;-2.742;2023-02-26T11:52:42;11.60;54.20
33863;DHT22;20158;51.436;-2.742;2023-02-26T11:55:35;11.60;53.90
33863;DHT22;20158;51.436;-2.742;2023-02-26T11:58:13;11.60;53.80
33863;DHT22;20158;51.436;-2.742;2023-02-26T12:00:39;11.70;54.00
33863;DHT22;20158;51.436;-2.742;2023-02-26T12:03:13;11.70;53.80
33863;DHT22;20158;51.436;-2.742;2023-02-26T12:05:40;11.80;53.80
33863;DHT22;20158;51.436;-2.742;2023-02-26T12:08:33;11.90;53.60
33863;DHT22;20158;51.436;-2.742;2023-02-26T12:11:35;12.00;53.40
33863;DHT22;20158;51.436;-2.742;2023-02-26T12:28:05;12.50;51.80
33863;DHT22;20158;51.436;-2.742;2023-02-26T12:38:54;12.00;50.20
33863;DHT22;20158;51.436;-2.742;2023-02-26T12:44:03;11.60;49.30
33863;DHT22;20158;51.436;-2.742;2023-02-26T12:49:19;11.30;48.70
33863;DHT22;20158;51.436;-2.742;2023-02-26T13:00:58;10.70;46.80
33863;DHT22;20158;51.436;-2.742;2023-02-26T13:11:56;10.30;45.90
33863;DHT22;20158;51.436;-2.742;2023-02-26T13:17:35;10.30;45.40
33863;DHT22;20158;51.436;-2.742;2023-02-26T13:20:16;10.30;45.20
33863;DHT22;20158;51.436;-2.742;2023-02-26T13:22:49;10.30;44.90
33863;DHT22;20158;51.436;-2.742;2023-02-26T13:27:46;10.50;44.50
33863;DHT22;20158;51.436;-2.742;2023-02-26T13:30:25;10.50;44.20
33863;DHT22;20158;51.436;-2.742;2023-02-26T13:32:55;10.60;43.90
33863;DHT22;20158;51.436;-2.742;2023-02-26T13:35:30;10.70;43.80
33863;DHT22;20158;51.436;-2.742;2023-02-26T13:38:00;10.70;43.40
33863;DHT22;20158;51.436;-2.742;2023-02-26T13:40:41;10.80;43.20
33863;DHT22;20158;51.436;-2.742;2023-02-26T13:51:36;10.70;42.30
33863;DHT22;20158;51.436;-2.742;2023-02-26T13:54:16;10.70;41.90
33863;DHT22;20158;51.436;-2.742;2023-02-26T13:59:53;10.60;42.00
33863;DHT22;20158;51.436;-2.742;2023-02-26T14:04:53;10.50;41.60
33863;DHT22;20158;51.436;-2.742;2023-02-26T14:10:44;10.30;41.00
33863;DHT22;20158;51.436;-2.742;2023-02-26T14:13:19;10.20;40.90
33863;DHT22;20158;51.436;-2.742;2023-02-26T14:15:59;10.20;41.30
33863;DHT22;20158;51.436;-2.742;2023-02-26T14:18:40;10.30;41.20
33863;DHT22;20158;51.436;-2.742;2023-02-26T14:23:59;10.60;40.80
33863;DHT22;20158;51.436;-2.742;2023-02-26T14:26:30;10.60;40.70
33863;DHT22;20158;51.436;-2.742;2023-02-26T14:29:16;10.60;40.40
33863;DHT22;20158;51.436;-2.742;2023-02-26T14:34:25;10.60;39.90
33863;DHT22;20158;51.436;-2.742;2023-02-26T14:36:59;10.60;39.90
33863;DHT22;20158;51.436;-2.742;2023-02-26T14:40:01;10.60;39.90
33863;DHT22;20158;51.436;-2.742;2023-02-26T14:42:34;10.60;39.30
33863;DHT22;20158;51.436;-2.742;2023-02-26T14:47:53;10.60;39.40
33863;DHT22;20158;51.436;-2.742;2023-02-26T14:50:21;10.70;39.50
33863;DHT22;20158;51.436;-2.742;2023-02-26T14:55:35;10.80;38.90
33863;DHT22;20158;51.436;-2.742;2023-02-26T14:58:43;10.80;39.00
33863;DHT22;20158;51.436;-2.742;2023-02-26T15:01:26;10.90;38.60
33863;DHT22;20158;51.436;-2.742;2023-02-26T15:07:40;11.00;38.30
33863;DHT22;20158;51.436;-2.742;2023-02-26T15:10:06;11.00;38.60
33863;DHT22;20158;51.436;-2.742;2023-02-26T15:24:16;10.70;38.30
33863;DHT22;20158;51.436;-2.742;2023-02-26T15:26:39;10.70;38.10
33863;DHT22;20158;51.436;-2.742;2023-02-26T15:29:10;10.70;38.10
33863;DHT22;20158;51.436;-2.742;2023-02-26T15:32:20;10.80;38.00
33863;DHT22;20158;51.436;-2.742;2023-02-26T15:34:58;10.80;37.40
33863;DHT22;20158;51.436;-2.742;2023-02-26T15:37:26;10.90;37.60
33863;DHT22;20158;51.436;-2.742;2023-02-26T15:39:53;11.00;37.70
33863;DHT22;20158;51.436;-2.742;2023-02-26T15:42:21;11.00;37.50
33863;DHT22;20158;51.436;-2.742;2023-02-26T15:44:49;11.00;37.30
33863;DHT22;20158;51.436;-2.742;2023-02-26T15:47:16;10.90;37.10
33863;DHT22;20158;51.436;-2.742;2023-02-26T15:49:46;10.90;37.20
33863;DHT22;20158;51.436;-2.742;2023-02-26T15:52:19;10.80;37.10
33863;DHT22;20158;51.436;-2.742;2023-02-26T15:54:58;10.70;37.10
33863;DHT22;20158;51.436;-2.742;2023-02-26T15:57:26;10.60;36.90
33863;DHT22;20158;51.436;-2.742;2023-02-26T16:00:00;10.50;36.90
33863;DHT22;20158;51.436;-2.742;2023-02-26T16:02:40;10.50;36.90
33863;DHT22;20158;51.436;-2.742;2023-02-26T16:05:07;10.40;36.80
33863;DHT22;20158;51.436;-2.742;2023-02-26T16:07:33;10.40;36.90
33863;DHT22;20158;51.436;-2.742;2023-02-26T16:10:05;10.30;36.70
33863;DHT22;20158;51.436;-2.742;2023-02-26T16:12:39;10.30;36.60
33863;DHT22;20158;51.436;-2.742;2023-02-26T16:15:14;10.20;36.40
33863;DHT22;20158;51.436;-2.742;2023-02-26T16:17:44;10.10;36.30
33863;DHT22;20158;51.436;-2.742;2023-02-26T16:20:21;10.10;36.30
33863;DHT22;20158;51.436;-2.742;2023-02-26T16:25:34;10.10;36.80
33863;DHT22;20158;51.436;-2.742;2023-02-26T16:28:06;10.20;37.10
33863;DHT22;20158;51.436;-2.742;2023-02-26T16:30:38;10.30;37.30
33863;DHT22;20158;51.436;-2.742;2023-02-26T16:33:12;10.30;37.30
33863;DHT22;20158;51.436;-2.742;2023-02-26T16:35:44;10.30;37.20
33863;DHT22;20158;51.436;-2.742;2023-02-26T16:38:24;10.30;37.20
33863;DHT22;20158;51.436;-2.742;2023-02-26T16:41:03;10.30;37.20
33863;DHT22;20158;51.436;-2.742;2023-02-26T16:43:59;10.20;37.10
33863;DHT22;20158;51.436;-2.742;2023-02-26T16:46:30;10.20;37.00
33863;DHT22;20158;51.436;-2.742;2023-02-26T16:51:38;10.10;37.10
33863;DHT22;20158;51.436;-2.742;2023-02-26T16:54:08;10.10;37.30
33863;DHT22;20158;51.436;-2.742;2023-02-26T16:56:41;10.00;37.10
33863;DHT22;20158;51.436;-2.742;2023-02-26T16:59:19;10.00;37.20
33863;DHT22;20158;51.436;-2.742;2023-02-26T17:01:52;10.00;37.20
33863;DHT22;20158;51.436;-2.742;2023-02-26T17:04:22;9.90;37.10
33863;DHT22;20158;51.436;-2.742;2023-02-26T17:06:50;9.90;37.20
33863;DHT22;20158;51.436;-2.742;2023-02-26T17:15:28;9.70;37.00
33863;DHT22;20158;51.436;-2.742;2023-02-26T17:17:54;9.60;37.00
33863;DHT22;20158;51.436;-2.742;2023-02-26T17:20:24;9.50;37.10
33863;DHT22;20158;51.436;-2.742;2023-02-26T17:22:51;9.50;37.20
33863;DHT22;20158;51.436;-2.742;2023-02-26T17:25:18;9.50;37.50
33863;DHT22;20158;51.436;-2.742;2023-02-26T17:27:46;9.40;37.40
33863;DHT22;20158;51.436;-2.742;2023-02-26T17:30:15;9.40;37.50
33863;DHT22;20158;51.436;-2.742;2023-02-26T17:32:42;9.30;37.40
33863;DHT22;20158;51.436;-2.742;2023-02-26T17:35:14;9.30;37.60
33863;DHT22;20158;51.436;-2.742;2023-02-26T17:37:41;9.20;37.50
33863;DHT22;20158;51.436;-2.742;2023-02-26T17:40:22;9.10;37.40
33863;DHT22;20158;51.436;-2.742;2023-02-26T17:42:49;9.10;37.40
33863;DHT22;20158;51.436;-2.742;2023-02-26T17:45:17;9.00;37.30
33863;DHT22;20158;51.436;-2.742;2023-02-26T17:47:43;8.90;37.30
33863;DHT22;20158;51.436;-2.742;2023-02-26T17:50:35;8.80;37.20
33863;DHT22;20158;51.436;-2.742;2023-02-26T17:53:03;8.80;37.30
33863;DHT22;20158;51.436;-2.742;2023-02-26T17:55:30;8.70;37.30
33863;DHT22;20158;51.436;-2.742;2023-02-26T17:57:56;8.60;37.20
33863;DHT22;20158;51.436;-2.742;2023-02-26T18:00:23;8.60;37.40
33863;DHT22;20158;51.436;-2.742;2023-02-26T18:02:50;8.50;37.30
33863;DHT22;20158;51.436;-2.742;2023-02-26T18:05:17;8.50;37.50
33863;DHT22;20158;51.436;-2.742;2023-02-26T18:07:44;8.40;37.40
33863;DHT22;20158;51.436;-2.742;2023-02-26T18:10:19;8.30;37.30
33863;DHT22;20158;51.436;-2.742;2023-02-26T18:12:46;8.30;37.40
33863;DHT22;20158;51.436;-2.742;2023-02-26T18:15:12;8.20;37.30
33863;DHT22;20158;51.436;-2.742;2023-02-26T18:17:38;8.20;37.50
33863;DHT22;20158;51.436;-2.742;2023-02-26T18:20:04;8.10;37.40
33863;DHT22;20158;51.436;-2.742;2023-02-26T18:22:32;8.10;37.50
33863;DHT22;20158;51.436;-2.742;2023-02-26T18:24:58;8.00;37.40
33863;DHT22;20158;51.436;-2.742;2023-02-26T18:27:25;8.00;37.60
33863;DHT22;20158;51.436;-2.742;2023-02-26T18:29:52;8.00;37.90
33863;DHT22;20158;51.436;-2.742;2023-02-26T18:32:21;8.00;38.40
33863;DHT22;20158;51.436;-2.742;2023-02-26T18:34:48;8.10;39.60
33863;DHT22;20158;51.436;-2.742;2023-02-26T18:37:21;8.40;40.80
33863;DHT22;20158;51.436;-2.742;2023-02-26T18:39:48;8.80;41.80
33863;DHT22;20158;51.436;-2.742;2023-02-26T18:42:26;9.20;42.40
33863;DHT22;20158;51.436;-2.742;2023-02-26T18:44:52;9.50;43.00
33863;DHT22;20158;51.436;-2.742;2023-02-26T18:47:20;9.80;43.00
33863;DHT22;20158;51.436;-2.742;2023-02-26T18:49:47;10.20;43.60
33863;DHT22;20158;51.436;-2.742;2023-02-26T18:52:13;10.40;43.80
33863;DHT22;20158;51.436;-2.742;2023-02-26T18:54:39;10.70;44.00